N47031 USCC-USUU
Flight info
| Callsign | N47031 |
|---|---|
| Flight time | N/A |
| Altitude | 13000 |
| Route | N0185F130 NOMGU L749 BASAB N170 DIZNA |
| Aircraft | BE58/L-SDFY/N |
Departure
| Time | 2026-04-26 15:52 |
|---|---|
| Airport | Kurchatov Chelyabinsk International Airport (USCC) |
Arrival
| Time | N/A |
|---|---|
| Airport | Kurgan Airport (USUU) |
| Time | Latitude | Longitude | Altitude | Speed | Heading |
|---|---|---|---|---|---|
| 2026-04-26 15:29 | 55.29969 | 61.51302 | 716 ft | 0 kts | 193° |
| 2026-04-26 15:41 | 55.29964 | 61.51300 | 743 ft | 4 kts | 193° |
| 2026-04-26 15:41 | 55.29933 | 61.51224 | 743 ft | 14 kts | 309° |
| 2026-04-26 15:42 | 55.30046 | 61.51261 | 743 ft | 20 kts | 37° |
| 2026-04-26 15:42 | 55.30168 | 61.51325 | 743 ft | 16 kts | 16° |
| 2026-04-26 15:42 | 55.30261 | 61.51377 | 744 ft | 12 kts | 13° |
| 2026-04-26 15:42 | 55.30313 | 61.51396 | 744 ft | 0 kts | 13° |
| 2026-04-26 15:49 | 55.30326 | 61.51402 | 744 ft | 7 kts | 13° |
| 2026-04-26 15:49 | 55.30416 | 61.51415 | 746 ft | 16 kts | 335° |
| 2026-04-26 15:49 | 55.30444 | 61.51333 | 746 ft | 0 kts | 283° |
| 2026-04-26 15:51 | 55.30493 | 61.50971 | 745 ft | 73 kts | 283° |
| 2026-04-26 15:51 | 55.30650 | 61.49777 | 875 ft | 118 kts | 282° |
| 2026-04-26 15:51 | 55.30849 | 61.48225 | 1155 ft | 139 kts | 285° |
| 2026-04-26 15:52 | 55.31095 | 61.46562 | 1563 ft | 142 kts | 284° |
| 2026-04-26 15:52 | 55.31349 | 61.44879 | 1974 ft | 142 kts | 284° |
| 2026-04-26 15:52 | 55.31603 | 61.43205 | 2377 ft | 142 kts | 284° |
| 2026-04-26 15:52 | 55.31772 | 61.42101 | 2626 ft | 141 kts | 284° |
| 2026-04-26 15:53 | 55.32108 | 61.39884 | 3152 ft | 139 kts | 284° |
| 2026-04-26 15:53 | 55.32356 | 61.38248 | 3539 ft | 138 kts | 284° |
| 2026-04-26 15:53 | 55.32601 | 61.36633 | 3934 ft | 136 kts | 284° |
| 2026-04-26 15:53 | 55.32844 | 61.35039 | 4325 ft | 134 kts | 284° |
| 2026-04-26 15:54 | 55.33089 | 61.33471 | 4717 ft | 132 kts | 284° |
| 2026-04-26 15:54 | 55.33334 | 61.31930 | 5111 ft | 130 kts | 285° |
| 2026-04-26 15:54 | 55.33921 | 61.30763 | 5504 ft | 134 kts | 324° |
| 2026-04-26 15:54 | 55.34818 | 61.30211 | 5807 ft | 149 kts | 356° |
| 2026-04-26 15:55 | 55.35769 | 61.31078 | 6080 ft | 171 kts | 45° |
| 2026-04-26 15:55 | 55.36181 | 61.33097 | 6351 ft | 181 kts | 88° |
| 2026-04-26 15:55 | 55.36056 | 61.35309 | 6608 ft | 183 kts | 108° |
| 2026-04-26 15:55 | 55.35547 | 61.37347 | 6858 ft | 182 kts | 118° |
| 2026-04-26 15:56 | 55.35019 | 61.39348 | 7108 ft | 184 kts | 118° |
| 2026-04-26 15:56 | 55.34475 | 61.41385 | 7366 ft | 184 kts | 118° |
| 2026-04-26 15:56 | 55.33928 | 61.43412 | 7618 ft | 183 kts | 118° |
| 2026-04-26 15:56 | 55.33386 | 61.45415 | 7876 ft | 181 kts | 118° |
| 2026-04-26 15:57 | 55.32842 | 61.47393 | 8136 ft | 179 kts | 121° |
| 2026-04-26 15:57 | 55.32214 | 61.49259 | 8402 ft | 176 kts | 126° |
| 2026-04-26 15:57 | 55.31550 | 61.51054 | 8670 ft | 175 kts | 127° |
| 2026-04-26 15:57 | 55.31097 | 61.52253 | 8853 ft | 174 kts | 128° |
| 2026-04-26 15:58 | 55.30640 | 61.54884 | 9212 ft | 174 kts | 77° |
| 2026-04-26 15:58 | 55.31138 | 61.56759 | 9433 ft | 171 kts | 53° |
| 2026-04-26 15:58 | 55.31784 | 61.58530 | 9619 ft | 174 kts | 51° |
| 2026-04-26 15:58 | 55.32457 | 61.60314 | 9821 ft | 176 kts | 51° |
| 2026-04-26 15:59 | 55.33147 | 61.62105 | 9989 ft | 178 kts | 51° |
| 2026-04-26 15:59 | 55.33847 | 61.63909 | 10167 ft | 180 kts | 51° |
| 2026-04-26 15:59 | 55.34463 | 61.65840 | 10342 ft | 182 kts | 58° |
| 2026-04-26 15:59 | 55.34997 | 61.67864 | 10515 ft | 183 kts | 61° |
| 2026-04-26 16:00 | 55.35499 | 61.69909 | 10687 ft | 182 kts | 62° |
| 2026-04-26 16:00 | 55.36012 | 61.71927 | 10869 ft | 180 kts | 59° |
| 2026-04-26 16:00 | 55.36549 | 61.73876 | 11038 ft | 179 kts | 58° |
| 2026-04-26 16:00 | 55.37106 | 61.75858 | 11222 ft | 178 kts | 58° |
| 2026-04-26 16:01 | 55.37631 | 61.77796 | 11397 ft | 178 kts | 59° |
| 2026-04-26 16:01 | 55.38147 | 61.79796 | 11580 ft | 177 kts | 60° |
| 2026-04-26 16:01 | 55.38647 | 61.81742 | 11752 ft | 176 kts | 59° |
| 2026-04-26 16:01 | 55.39156 | 61.83697 | 11941 ft | 175 kts | 58° |
| 2026-04-26 16:02 | 55.39672 | 61.85638 | 12119 ft | 175 kts | 57° |
| 2026-04-26 16:02 | 55.40193 | 61.87569 | 12305 ft | 174 kts | 57° |
| 2026-04-26 16:02 | 55.40710 | 61.89492 | 12493 ft | 174 kts | 57° |
| 2026-04-26 16:02 | 55.41058 | 61.90806 | 12584 ft | 176 kts | 60° |
| 2026-04-26 16:03 | 55.41743 | 61.93421 | 12762 ft | 179 kts | 58° |
| 2026-04-26 16:03 | 55.42268 | 61.95421 | 12866 ft | 182 kts | 58° |
| 2026-04-26 16:03 | 55.42813 | 61.97473 | 12915 ft | 188 kts | 59° |
| 2026-04-26 16:03 | 55.43372 | 61.99582 | 12937 ft | 193 kts | 60° |
| 2026-04-26 16:04 | 55.43944 | 62.01751 | 12933 ft | 197 kts | 60° |
| 2026-04-26 16:04 | 55.44528 | 62.03964 | 12944 ft | 200 kts | 59° |
| 2026-04-26 16:04 | 55.45124 | 62.06190 | 12947 ft | 202 kts | 60° |
| 2026-04-26 16:04 | 55.45712 | 62.08450 | 12946 ft | 203 kts | 61° |
| 2026-04-26 16:05 | 55.46289 | 62.10723 | 12941 ft | 203 kts | 60° |
| 2026-04-26 16:05 | 55.46888 | 62.12975 | 12946 ft | 203 kts | 59° |
| 2026-04-26 16:05 | 55.47501 | 62.15209 | 12937 ft | 203 kts | 59° |
| 2026-04-26 16:05 | 55.48106 | 62.17459 | 12934 ft | 203 kts | 60° |
| 2026-04-26 16:06 | 55.48694 | 62.19725 | 12947 ft | 204 kts | 61° |
| 2026-04-26 16:06 | 55.49279 | 62.22007 | 12944 ft | 204 kts | 61° |
| 2026-04-26 16:06 | 55.49871 | 62.24275 | 12946 ft | 204 kts | 60° |
| 2026-04-26 16:06 | 55.50473 | 62.26537 | 12943 ft | 204 kts | 60° |
| 2026-04-26 16:07 | 55.51076 | 62.28803 | 12945 ft | 204 kts | 60° |
| 2026-04-26 16:07 | 55.51678 | 62.31076 | 12948 ft | 204 kts | 60° |
| 2026-04-26 16:07 | 55.52274 | 62.33352 | 12947 ft | 205 kts | 61° |
| 2026-04-26 16:07 | 55.52869 | 62.35638 | 12937 ft | 205 kts | 61° |
| 2026-04-26 16:08 | 55.53466 | 62.37918 | 12942 ft | 205 kts | 61° |
| 2026-04-26 16:08 | 55.53864 | 62.39427 | 12942 ft | 205 kts | 60° |
| 2026-04-26 16:08 | 55.54670 | 62.42473 | 12941 ft | 205 kts | 61° |
| 2026-04-26 16:08 | 55.55269 | 62.44749 | 12942 ft | 205 kts | 61° |
| 2026-04-26 16:09 | 55.55864 | 62.47030 | 12939 ft | 204 kts | 61° |
| 2026-04-26 16:09 | 55.56461 | 62.49310 | 12944 ft | 205 kts | 61° |
| 2026-04-26 16:09 | 55.57053 | 62.51564 | 12939 ft | 205 kts | 61° |
| 2026-04-26 16:09 | 55.57658 | 62.53842 | 12940 ft | 205 kts | 61° |
| 2026-04-26 16:10 | 55.58270 | 62.56113 | 12939 ft | 205 kts | 61° |
| 2026-04-26 16:10 | 55.58884 | 62.58383 | 12941 ft | 204 kts | 61° |
| 2026-04-26 16:10 | 55.59503 | 62.60649 | 12941 ft | 204 kts | 60° |
| 2026-04-26 16:10 | 55.60122 | 62.62913 | 12939 ft | 205 kts | 60° |
| 2026-04-26 16:11 | 55.60744 | 62.65176 | 12938 ft | 205 kts | 61° |
| 2026-04-26 16:11 | 55.61368 | 62.67442 | 12937 ft | 205 kts | 61° |
| 2026-04-26 16:11 | 55.61994 | 62.69701 | 12938 ft | 205 kts | 60° |
| 2026-04-26 16:11 | 55.62622 | 62.71962 | 12936 ft | 205 kts | 61° |
| 2026-04-26 16:12 | 55.63250 | 62.74218 | 12936 ft | 205 kts | 61° |
| 2026-04-26 16:12 | 55.63880 | 62.76476 | 12940 ft | 205 kts | 61° |
| 2026-04-26 16:12 | 55.65148 | 62.80997 | 12932 ft | 205 kts | 61° |
| 2026-04-26 16:13 | 55.65783 | 62.83255 | 12931 ft | 205 kts | 61° |
| 2026-04-26 16:13 | 55.66419 | 62.85513 | 12932 ft | 205 kts | 62° |
| 2026-04-26 16:13 | 55.66882 | 62.87907 | 12929 ft | 206 kts | 73° |
| 2026-04-26 16:13 | 55.67264 | 62.90349 | 12932 ft | 206 kts | 74° |
| 2026-04-26 16:14 | 55.67630 | 62.92797 | 12927 ft | 206 kts | 74° |
| 2026-04-26 16:14 | 55.67990 | 62.95248 | 12932 ft | 206 kts | 75° |
| 2026-04-26 16:14 | 55.68706 | 63.00123 | 12931 ft | 206 kts | 75° |
| 2026-04-26 16:15 | 55.69067 | 63.02580 | 12931 ft | 206 kts | 75° |
| 2026-04-26 16:15 | 55.69427 | 63.05034 | 12936 ft | 206 kts | 75° |
| 2026-04-26 16:15 | 55.69791 | 63.07489 | 12934 ft | 206 kts | 75° |
| 2026-04-26 16:16 | 55.70522 | 63.12400 | 12933 ft | 206 kts | 75° |
| 2026-04-26 16:16 | 55.70889 | 63.14856 | 12935 ft | 206 kts | 75° |
| 2026-04-26 16:16 | 55.71260 | 63.17316 | 12933 ft | 206 kts | 75° |
| 2026-04-26 16:16 | 55.71631 | 63.19773 | 12934 ft | 206 kts | 75° |
| 2026-04-26 16:17 | 55.72003 | 63.22230 | 12930 ft | 206 kts | 75° |
| 2026-04-26 16:17 | 55.72378 | 63.24688 | 12936 ft | 206 kts | 75° |
| 2026-04-26 16:17 | 55.72757 | 63.27149 | 12936 ft | 207 kts | 75° |
| 2026-04-26 16:17 | 55.73137 | 63.29613 | 12932 ft | 207 kts | 75° |
| 2026-04-26 16:18 | 55.73517 | 63.32070 | 12927 ft | 207 kts | 75° |
| 2026-04-26 16:18 | 55.74282 | 63.36989 | 12930 ft | 206 kts | 75° |
| 2026-04-26 16:19 | 55.75053 | 63.41897 | 12929 ft | 206 kts | 75° |
| 2026-04-26 16:19 | 55.75439 | 63.44345 | 12931 ft | 206 kts | 75° |
| 2026-04-26 16:19 | 55.76087 | 63.48417 | 12931 ft | 206 kts | 75° |
| 2026-04-26 16:20 | 55.76606 | 63.51663 | 12931 ft | 206 kts | 75° |
| 2026-04-26 16:20 | 55.77393 | 63.56564 | 12927 ft | 206 kts | 75° |
| 2026-04-26 16:20 | 55.77789 | 63.59013 | 12929 ft | 206 kts | 75° |
| 2026-04-26 16:21 | 55.78184 | 63.61457 | 12929 ft | 206 kts | 75° |
| 2026-04-26 16:21 | 55.78581 | 63.63901 | 12931 ft | 206 kts | 75° |
| 2026-04-26 16:21 | 55.78979 | 63.66342 | 12931 ft | 206 kts | 75° |
| 2026-04-26 16:21 | 55.79378 | 63.68780 | 12930 ft | 205 kts | 75° |
| 2026-04-26 16:22 | 55.79777 | 63.71217 | 12929 ft | 205 kts | 75° |
| 2026-04-26 16:22 | 55.80176 | 63.73654 | 12928 ft | 205 kts | 75° |
| 2026-04-26 16:22 | 55.80447 | 63.75301 | 12929 ft | 205 kts | 75° |
| 2026-04-26 16:22 | 55.80846 | 63.77738 | 12931 ft | 205 kts | 77° |
| 2026-04-26 16:23 | 55.80649 | 63.80938 | 12930 ft | 196 kts | 116° |
| 2026-04-26 16:23 | 55.80319 | 63.82436 | 12927 ft | 196 kts | 118° |
| 2026-04-26 16:23 | 55.79792 | 63.84669 | 12930 ft | 196 kts | 120° |
| 2026-04-26 16:23 | 55.79251 | 63.86887 | 12930 ft | 196 kts | 120° |
| 2026-04-26 16:24 | 55.78702 | 63.89100 | 12930 ft | 196 kts | 120° |
| 2026-04-26 16:24 | 55.78152 | 63.91311 | 12927 ft | 195 kts | 120° |
| 2026-04-26 16:24 | 55.77601 | 63.93519 | 12930 ft | 195 kts | 120° |
| 2026-04-26 16:24 | 55.77052 | 63.95727 | 12932 ft | 195 kts | 120° |
| 2026-04-26 16:25 | 55.76504 | 63.97925 | 12931 ft | 192 kts | 120° |
| 2026-04-26 16:25 | 55.75974 | 64.00062 | 12930 ft | 187 kts | 121° |
| 2026-04-26 16:25 | 55.75456 | 64.02161 | 12928 ft | 184 kts | 120° |
| 2026-04-26 16:25 | 55.74955 | 64.04243 | 12932 ft | 183 kts | 120° |
| 2026-04-26 16:26 | 55.74454 | 64.06325 | 12839 ft | 187 kts | 120° |
| 2026-04-26 16:26 | 55.73925 | 64.08484 | 12649 ft | 193 kts | 120° |
| 2026-04-26 16:26 | 55.73385 | 64.10676 | 12462 ft | 194 kts | 120° |
| 2026-04-26 16:26 | 55.72847 | 64.12868 | 12273 ft | 194 kts | 120° |
| 2026-04-26 16:27 | 55.72309 | 64.15063 | 12088 ft | 194 kts | 120° |
| 2026-04-26 16:27 | 55.71770 | 64.17264 | 11901 ft | 194 kts | 120° |
| 2026-04-26 16:27 | 55.71234 | 64.19464 | 11727 ft | 195 kts | 120° |
| 2026-04-26 16:27 | 55.70698 | 64.21669 | 11541 ft | 195 kts | 120° |
| 2026-04-26 16:28 | 55.70171 | 64.23849 | 11361 ft | 195 kts | 120° |
| 2026-04-26 16:28 | 55.69637 | 64.26057 | 11180 ft | 195 kts | 120° |
| 2026-04-26 16:28 | 55.69106 | 64.28266 | 11004 ft | 195 kts | 120° |
| 2026-04-26 16:28 | 55.68576 | 64.30481 | 10823 ft | 195 kts | 120° |
| 2026-04-26 16:29 | 55.68047 | 64.32689 | 10649 ft | 195 kts | 120° |
| 2026-04-26 16:29 | 55.67517 | 64.34903 | 10472 ft | 195 kts | 120° |
| 2026-04-26 16:29 | 55.66990 | 64.37113 | 10300 ft | 195 kts | 120° |
| 2026-04-26 16:29 | 55.66463 | 64.39323 | 10126 ft | 195 kts | 120° |
| 2026-04-26 16:30 | 55.65935 | 64.41535 | 9953 ft | 195 kts | 120° |
| 2026-04-26 16:30 | 55.65407 | 64.43744 | 9771 ft | 195 kts | 120° |
| 2026-04-26 16:30 | 55.64878 | 64.45955 | 9582 ft | 195 kts | 120° |
| 2026-04-26 16:30 | 55.64348 | 64.48166 | 9383 ft | 194 kts | 120° |
| 2026-04-26 16:31 | 55.63824 | 64.50348 | 9199 ft | 192 kts | 120° |
| 2026-04-26 16:31 | 55.63331 | 64.52532 | 9000 ft | 193 kts | 110° |
| 2026-04-26 16:31 | 55.63216 | 64.54923 | 8821 ft | 196 kts | 97° |
| 2026-04-26 16:31 | 55.63148 | 64.57323 | 8632 ft | 195 kts | 97° |
| 2026-04-26 16:32 | 55.63069 | 64.59683 | 8437 ft | 195 kts | 98° |
| 2026-04-26 16:32 | 55.63011 | 64.61296 | 8325 ft | 194 kts | 98° |
| 2026-04-26 16:32 | 55.62890 | 64.64454 | 8087 ft | 194 kts | 98° |
| 2026-04-26 16:32 | 55.62797 | 64.66835 | 7899 ft | 194 kts | 98° |
| 2026-04-26 16:33 | 55.62703 | 64.69216 | 7717 ft | 194 kts | 98° |
| 2026-04-26 16:33 | 55.62605 | 64.71593 | 7538 ft | 194 kts | 98° |
| 2026-04-26 16:33 | 55.62505 | 64.73968 | 7362 ft | 194 kts | 98° |
| 2026-04-26 16:33 | 55.62402 | 64.76342 | 7182 ft | 193 kts | 98° |
| 2026-04-26 16:34 | 55.62296 | 64.78709 | 7001 ft | 193 kts | 98° |
| 2026-04-26 16:34 | 55.62187 | 64.81077 | 6823 ft | 193 kts | 98° |
| 2026-04-26 16:34 | 55.62074 | 64.83447 | 6653 ft | 193 kts | 98° |
| 2026-04-26 16:34 | 55.61959 | 64.85815 | 6477 ft | 193 kts | 98° |
| 2026-04-26 16:35 | 55.61841 | 64.88166 | 6296 ft | 190 kts | 98° |
| 2026-04-26 16:35 | 55.61724 | 64.90471 | 6112 ft | 186 kts | 98° |
| 2026-04-26 16:35 | 55.61611 | 64.92735 | 5933 ft | 183 kts | 98° |
| 2026-04-26 16:35 | 55.61500 | 64.94972 | 5746 ft | 181 kts | 98° |
| 2026-04-26 16:36 | 55.61388 | 64.97183 | 5560 ft | 180 kts | 98° |
| 2026-04-26 16:36 | 55.61277 | 64.99378 | 5374 ft | 179 kts | 98° |
| 2026-04-26 16:36 | 55.61167 | 65.01571 | 5195 ft | 178 kts | 98° |
| 2026-04-26 16:36 | 55.61056 | 65.03748 | 5014 ft | 178 kts | 98° |
| 2026-04-26 16:37 | 55.60946 | 65.05920 | 4837 ft | 177 kts | 98° |
| 2026-04-26 16:37 | 55.60650 | 65.07992 | 4654 ft | 172 kts | 121° |
| 2026-04-26 16:37 | 55.60161 | 65.09930 | 4484 ft | 173 kts | 119° |
| 2026-04-26 16:37 | 55.59671 | 65.11876 | 4296 ft | 173 kts | 119° |
| 2026-04-26 16:38 | 55.59179 | 65.13820 | 4115 ft | 173 kts | 119° |
| 2026-04-26 16:38 | 55.58692 | 65.15740 | 3935 ft | 174 kts | 119° |
| 2026-04-26 16:38 | 55.58197 | 65.17693 | 3754 ft | 174 kts | 119° |
| 2026-04-26 16:38 | 55.57701 | 65.19642 | 3570 ft | 174 kts | 119° |
| 2026-04-26 16:39 | 55.57205 | 65.21592 | 3389 ft | 174 kts | 120° |
| 2026-04-26 16:39 | 55.56659 | 65.23487 | 3202 ft | 173 kts | 124° |
| 2026-04-26 16:39 | 55.56065 | 65.25314 | 3076 ft | 169 kts | 126° |
| 2026-04-26 16:39 | 55.55477 | 65.27074 | 3016 ft | 163 kts | 126° |
| 2026-04-26 16:40 | 55.54908 | 65.28766 | 2998 ft | 157 kts | 126° |
| 2026-04-26 16:40 | 55.54359 | 65.30402 | 2981 ft | 153 kts | 127° |
| 2026-04-26 16:40 | 55.53827 | 65.31999 | 2981 ft | 149 kts | 127° |
| 2026-04-26 16:40 | 55.53307 | 65.33564 | 2976 ft | 146 kts | 126° |
| 2026-04-26 16:41 | 55.52798 | 65.35105 | 2975 ft | 144 kts | 126° |
| 2026-04-26 16:41 | 55.52300 | 65.36623 | 2968 ft | 142 kts | 128° |
| 2026-04-26 16:41 | 55.51810 | 65.38125 | 2970 ft | 140 kts | 128° |
| 2026-04-26 16:41 | 55.51326 | 65.39609 | 2975 ft | 139 kts | 125° |
| 2026-04-26 16:42 | 55.50849 | 65.41085 | 2981 ft | 136 kts | 129° |
| 2026-04-26 16:42 | 55.50390 | 65.42518 | 2982 ft | 132 kts | 124° |
| 2026-04-26 16:42 | 55.49950 | 65.43914 | 2978 ft | 129 kts | 129° |
| 2026-04-26 16:42 | 55.49667 | 65.45403 | 2971 ft | 134 kts | 88° |
| 2026-04-26 16:43 | 55.50071 | 65.46839 | 2978 ft | 132 kts | 48° |
| 2026-04-26 16:43 | 55.50689 | 65.48029 | 2959 ft | 132 kts | 39° |
| 2026-04-26 16:43 | 55.51343 | 65.49174 | 2935 ft | 133 kts | 39° |
| 2026-04-26 16:43 | 55.52004 | 65.50317 | 2909 ft | 133 kts | 42° |
| 2026-04-26 16:44 | 55.52672 | 65.51456 | 2884 ft | 134 kts | 37° |
| 2026-04-26 16:44 | 55.53345 | 65.52588 | 2854 ft | 134 kts | 39° |
| 2026-04-26 16:44 | 55.54020 | 65.53730 | 2808 ft | 136 kts | 42° |
| 2026-04-26 16:44 | 55.54710 | 65.54891 | 2761 ft | 139 kts | 37° |
| 2026-04-26 16:45 | 55.55430 | 65.56087 | 2720 ft | 144 kts | 41° |
| 2026-04-26 16:45 | 55.56165 | 65.57314 | 2691 ft | 146 kts | 37° |
| 2026-04-26 16:45 | 55.56904 | 65.58542 | 2690 ft | 146 kts | 41° |
| 2026-04-26 16:45 | 55.57641 | 65.59771 | 2690 ft | 146 kts | 37° |
| 2026-04-26 16:46 | 55.58413 | 65.60912 | 2675 ft | 142 kts | 19° |
| 2026-04-26 16:46 | 55.59302 | 65.60940 | 2684 ft | 122 kts | 325° |
| 2026-04-26 16:46 | 55.59762 | 65.59914 | 2680 ft | 105 kts | 275° |
| 2026-04-26 16:46 | 55.59584 | 65.58727 | 2678 ft | 102 kts | 241° |
| 2026-04-26 16:47 | 55.59036 | 65.57923 | 2667 ft | 105 kts | 216° |
| 2026-04-26 16:47 | 55.58648 | 65.56905 | 2666 ft | 101 kts | 243° |
| 2026-04-26 16:47 | 55.58318 | 65.55802 | 2674 ft | 103 kts | 243° |
| 2026-04-26 16:47 | 55.57981 | 65.54646 | 2675 ft | 107 kts | 241° |
| 2026-04-26 16:48 | 55.57619 | 65.53483 | 2687 ft | 109 kts | 238° |
| 2026-04-26 16:48 | 55.57146 | 65.52405 | 2624 ft | 112 kts | 230° |
| 2026-04-26 16:48 | 55.56574 | 65.51441 | 2468 ft | 115 kts | 224° |
| 2026-04-26 16:48 | 55.55940 | 65.50591 | 2367 ft | 113 kts | 219° |
| 2026-04-26 16:49 | 55.55280 | 65.49817 | 2235 ft | 115 kts | 217° |
| 2026-04-26 16:49 | 55.54601 | 65.49073 | 2114 ft | 114 kts | 215° |
| 2026-04-26 16:49 | 55.53923 | 65.48350 | 1869 ft | 115 kts | 216° |
| 2026-04-26 16:49 | 55.53236 | 65.47582 | 1594 ft | 117 kts | 217° |
| 2026-04-26 16:50 | 55.52559 | 65.46783 | 1304 ft | 118 kts | 216° |
| 2026-04-26 16:50 | 55.51859 | 65.45978 | 981 ft | 121 kts | 214° |